sensor_id;sensor_type;location;lat;lon;timestamp;noise_LAeq;noise_LA_min;noise_LA_max;noise_LA01;noise_LA95
49568;Laerm;35474;51.032;6.998;2023-05-14T00:00:35;54.57;44.27;66.73;;
49568;Laerm;35474;51.032;6.998;2023-05-14T00:03:01;57.74;44.03;67.56;;
49568;Laerm;35474;51.032;6.998;2023-05-14T00:05:28;54.42;43.33;67.35;;
49568;Laerm;35474;51.032;6.998;2023-05-14T00:07:55;52.16;43.90;64.70;;
49568;Laerm;35474;51.032;6.998;2023-05-14T00:10:21;58.57;44.23;69.00;;
49568;Laerm;35474;51.032;6.998;2023-05-14T00:12:50;59.19;43.90;71.58;;
49568;Laerm;35474;51.032;6.998;2023-05-14T00:15:17;58.74;44.31;70.41;;
49568;Laerm;35474;51.032;6.998;2023-05-14T00:17:43;55.43;44.58;69.84;;
49568;Laerm;35474;51.032;6.998;2023-05-14T00:20:10;55.20;44.35;68.75;;
49568;Laerm;35474;51.032;6.998;2023-05-14T00:22:38;55.54;43.39;70.71;;
49568;Laerm;35474;51.032;6.998;2023-05-14T00:25:06;54.33;43.72;67.17;;
49568;Laerm;35474;51.032;6.998;2023-05-14T00:27:33;55.09;43.86;70.96;;
49568;Laerm;35474;51.032;6.998;2023-05-14T00:30:06;51.15;44.07;64.18;;
49568;Laerm;35474;51.032;6.998;2023-05-14T00:32:34;59.87;44.83;74.42;;
49568;Laerm;35474;51.032;6.998;2023-05-14T00:35:00;53.17;43.77;64.20;;
49568;Laerm;35474;51.032;6.998;2023-05-14T00:37:29;55.33;44.47;65.24;;
49568;Laerm;35474;51.032;6.998;2023-05-14T00:39:56;50.49;43.39;66.81;;
49568;Laerm;35474;51.032;6.998;2023-05-14T00:42:23;47.05;43.39;53.13;;
49568;Laerm;35474;51.032;6.998;2023-05-14T00:44:49;53.97;44.73;67.60;;
49568;Laerm;35474;51.032;6.998;2023-05-14T00:47:16;56.81;44.15;67.83;;
49568;Laerm;35474;51.032;6.998;2023-05-14T00:49:43;53.12;43.33;67.92;;
49568;Laerm;35474;51.032;6.998;2023-05-14T00:52:10;53.17;43.49;65.98;;
49568;Laerm;35474;51.032;6.998;2023-05-14T00:54:37;58.11;42.41;74.04;;
49568;Laerm;35474;51.032;6.998;2023-05-14T00:57:05;61.03;42.82;74.91;;
49568;Laerm;35474;51.032;6.998;2023-05-14T00:59:32;52.24;42.09;63.16;;
49568;Laerm;35474;51.032;6.998;2023-05-14T01:01:58;62.10;43.54;76.69;;
49568;Laerm;35474;51.032;6.998;2023-05-14T01:04:25;47.23;42.65;62.73;;
49568;Laerm;35474;51.032;6.998;2023-05-14T01:07:14;46.78;42.88;58.74;;
49568;Laerm;35474;51.032;6.998;2023-05-14T01:10:08;60.54;43.19;71.93;;
49568;Laerm;35474;51.032;6.998;2023-05-14T01:15:36;53.88;43.80;67.39;;
49568;Laerm;35474;51.032;6.998;2023-05-14T01:18:07;50.75;43.63;63.05;;
49568;Laerm;35474;51.032;6.998;2023-05-14T01:20:34;53.49;43.81;69.41;;
49568;Laerm;35474;51.032;6.998;2023-05-14T01:23:02;54.72;43.39;66.70;;
49568;Laerm;35474;51.032;6.998;2023-05-14T01:25:29;55.46;43.93;66.64;;
49568;Laerm;35474;51.032;6.998;2023-05-14T01:28:14;58.84;44.76;68.35;;
49568;Laerm;35474;51.032;6.998;2023-05-14T01:33:11;54.53;44.31;67.28;;
49568;Laerm;35474;51.032;6.998;2023-05-14T01:35:39;47.93;43.29;58.61;;
49568;Laerm;35474;51.032;6.998;2023-05-14T01:38:09;54.92;43.49;69.03;;
49568;Laerm;35474;51.032;6.998;2023-05-14T01:40:36;52.08;43.39;65.23;;
49568;Laerm;35474;51.032;6.998;2023-05-14T01:43:04;47.17;43.37;62.96;;
49568;Laerm;35474;51.032;6.998;2023-05-14T01:45:34;46.78;43.19;55.52;;
49568;Laerm;35474;51.032;6.998;2023-05-14T01:48:01;55.50;43.49;68.47;;
49568;Laerm;35474;51.032;6.998;2023-05-14T01:50:27;51.45;43.24;63.35;;
49568;Laerm;35474;51.032;6.998;2023-05-14T01:52:54;47.85;43.77;55.07;;
49568;Laerm;35474;51.032;6.998;2023-05-14T01:55:22;46.26;43.34;54.66;;
49568;Laerm;35474;51.032;6.998;2023-05-14T01:57:50;56.83;44.23;68.37;;
49568;Laerm;35474;51.032;6.998;2023-05-14T02:00:18;54.29;42.65;69.04;;
49568;Laerm;35474;51.032;6.998;2023-05-14T02:02:48;46.44;42.71;61.56;;
49568;Laerm;35474;51.032;6.998;2023-05-14T02:05:14;55.22;44.19;66.73;;
49568;Laerm;35474;51.032;6.998;2023-05-14T02:07:41;59.49;43.24;76.39;;
49568;Laerm;35474;51.032;6.998;2023-05-14T02:10:08;55.06;43.29;68.21;;
49568;Laerm;35474;51.032;6.998;2023-05-14T02:12:35;53.84;44.03;68.40;;
49568;Laerm;35474;51.032;6.998;2023-05-14T02:15:02;56.54;43.72;69.37;;
49568;Laerm;35474;51.032;6.998;2023-05-14T02:17:32;46.39;43.58;57.30;;
49568;Laerm;35474;51.032;6.998;2023-05-14T02:19:58;54.30;43.14;68.23;;
49568;Laerm;35474;51.032;6.998;2023-05-14T02:22:25;55.28;43.54;66.82;;
49568;Laerm;35474;51.032;6.998;2023-05-14T02:24:52;55.06;43.19;66.07;;
49568;Laerm;35474;51.032;6.998;2023-05-14T02:27:18;56.24;43.19;67.97;;
49568;Laerm;35474;51.032;6.998;2023-05-14T02:29:45;51.09;43.42;65.46;;
49568;Laerm;35474;51.032;6.998;2023-05-14T02:32:11;56.93;43.86;69.58;;
49568;Laerm;35474;51.032;6.998;2023-05-14T02:34:38;50.85;43.68;66.55;;
49568;Laerm;35474;51.032;6.998;2023-05-14T02:37:05;56.49;43.77;67.82;;
49568;Laerm;35474;51.032;6.998;2023-05-14T02:39:31;54.73;43.72;67.61;;
49568;Laerm;35474;51.032;6.998;2023-05-14T02:41:58;59.08;44.65;70.94;;
49568;Laerm;35474;51.032;6.998;2023-05-14T02:44:24;52.47;44.47;67.50;;
49568;Laerm;35474;51.032;6.998;2023-05-14T02:46:51;46.66;44.27;51.42;;
49568;Laerm;35474;51.032;6.998;2023-05-14T02:49:18;55.17;45.01;67.35;;
49568;Laerm;35474;51.032;6.998;2023-05-14T02:51:44;56.07;45.45;69.60;;
49568;Laerm;35474;51.032;6.998;2023-05-14T02:54:11;53.16;44.97;68.08;;
49568;Laerm;35474;51.032;6.998;2023-05-14T02:56:37;59.97;45.51;72.25;;
49568;Laerm;35474;51.032;6.998;2023-05-14T02:59:04;50.70;45.07;61.43;;
49568;Laerm;35474;51.032;6.998;2023-05-14T03:01:31;56.34;45.20;71.56;;
49568;Laerm;35474;51.032;6.998;2023-05-14T03:03:58;51.74;45.51;63.40;;
49568;Laerm;35474;51.032;6.998;2023-05-14T03:06:24;56.55;45.66;72.73;;
49568;Laerm;35474;51.032;6.998;2023-05-14T03:08:51;57.78;45.01;70.10;;
49568;Laerm;35474;51.032;6.998;2023-05-14T03:11:17;56.73;45.20;70.41;;
49568;Laerm;35474;51.032;6.998;2023-05-14T03:13:44;58.37;44.69;70.96;;
49568;Laerm;35474;51.032;6.998;2023-05-14T03:16:11;54.65;44.65;68.18;;
49568;Laerm;35474;51.032;6.998;2023-05-14T03:18:38;55.88;44.58;69.87;;
49568;Laerm;35474;51.032;6.998;2023-05-14T03:21:05;53.96;44.11;68.84;;
49568;Laerm;35474;51.032;6.998;2023-05-14T03:23:32;53.31;44.87;66.55;;
49568;Laerm;35474;51.032;6.998;2023-05-14T03:26:00;55.79;45.07;65.85;;
49568;Laerm;35474;51.032;6.998;2023-05-14T03:28:27;55.25;45.23;67.10;;
49568;Laerm;35474;51.032;6.998;2023-05-14T03:30:54;54.64;44.69;65.69;;
49568;Laerm;35474;51.032;6.998;2023-05-14T03:33:21;55.12;44.87;66.88;;
49568;Laerm;35474;51.032;6.998;2023-05-14T03:35:48;56.30;44.76;67.01;;
49568;Laerm;35474;51.032;6.998;2023-05-14T03:38:14;56.13;44.94;69.33;;
49568;Laerm;35474;51.032;6.998;2023-05-14T03:40:42;60.39;44.42;71.87;;
49568;Laerm;35474;51.032;6.998;2023-05-14T03:43:09;59.15;44.59;75.18;;
49568;Laerm;35474;51.032;6.998;2023-05-14T03:45:36;58.30;44.51;69.86;;
49568;Laerm;35474;51.032;6.998;2023-05-14T03:48:03;54.20;44.73;71.01;;
49568;Laerm;35474;51.032;6.998;2023-05-14T03:50:30;57.10;45.78;68.30;;
49568;Laerm;35474;51.032;6.998;2023-05-14T03:52:57;55.03;44.94;66.43;;
49568;Laerm;35474;51.032;6.998;2023-05-14T03:55:23;54.68;44.80;71.93;;
49568;Laerm;35474;51.032;6.998;2023-05-14T03:57:50;54.00;44.03;66.14;;
49568;Laerm;35474;51.032;6.998;2023-05-14T04:00:16;56.43;43.39;67.69;;
49568;Laerm;35474;51.032;6.998;2023-05-14T04:02:43;54.62;43.28;71.66;;
49568;Laerm;35474;51.032;6.998;2023-05-14T04:05:10;56.14;44.11;70.12;;
49568;Laerm;35474;51.032;6.998;2023-05-14T04:07:36;55.67;44.27;67.90;;
49568;Laerm;35474;51.032;6.998;2023-05-14T04:10:03;58.52;44.51;70.92;;
49568;Laerm;35474;51.032;6.998;2023-05-14T04:12:30;58.05;44.87;68.67;;
49568;Laerm;35474;51.032;6.998;2023-05-14T04:14:57;50.44;44.31;67.19;;
49568;Laerm;35474;51.032;6.998;2023-05-14T04:17:23;56.25;44.54;68.88;;
49568;Laerm;35474;51.032;6.998;2023-05-14T04:19:51;53.51;44.11;64.98;;
49568;Laerm;35474;51.032;6.998;2023-05-14T04:22:18;55.71;44.31;69.44;;
49568;Laerm;35474;51.032;6.998;2023-05-14T04:24:44;55.73;44.83;73.72;;
49568;Laerm;35474;51.032;6.998;2023-05-14T04:27:18;47.60;43.90;68.62;;
49568;Laerm;35474;51.032;6.998;2023-05-14T04:29:47;55.13;44.19;69.65;;
49568;Laerm;35474;51.032;6.998;2023-05-14T04:32:13;55.02;44.39;67.73;;
49568;Laerm;35474;51.032;6.998;2023-05-14T04:34:40;56.74;44.47;67.79;;
49568;Laerm;35474;51.032;6.998;2023-05-14T04:37:07;53.92;43.94;66.78;;
49568;Laerm;35474;51.032;6.998;2023-05-14T04:39:34;58.58;44.97;70.65;;
49568;Laerm;35474;51.032;6.998;2023-05-14T04:42:01;48.43;45.27;54.57;;
49568;Laerm;35474;51.032;6.998;2023-05-14T04:44:27;56.82;46.18;72.78;;
49568;Laerm;35474;51.032;6.998;2023-05-14T04:46:54;55.24;45.42;71.13;;
49568;Laerm;35474;51.032;6.998;2023-05-14T04:49:20;48.17;44.94;59.79;;
49568;Laerm;35474;51.032;6.998;2023-05-14T04:51:47;55.80;45.60;69.70;;
49568;Laerm;35474;51.032;6.998;2023-05-14T04:54:14;56.71;45.27;67.85;;
49568;Laerm;35474;51.032;6.998;2023-05-14T04:56:41;47.59;44.73;55.89;;
49568;Laerm;35474;51.032;6.998;2023-05-14T04:59:08;55.75;44.76;73.32;;
49568;Laerm;35474;51.032;6.998;2023-05-14T05:01:34;55.63;45.07;66.95;;
49568;Laerm;35474;51.032;6.998;2023-05-14T05:04:01;54.54;46.23;66.71;;
49568;Laerm;35474;51.032;6.998;2023-05-14T05:06:28;56.08;44.80;67.65;;
49568;Laerm;35474;51.032;6.998;2023-05-14T05:08:55;58.18;45.42;70.59;;
49568;Laerm;35474;51.032;6.998;2023-05-14T05:11:21;47.56;44.76;54.17;;
49568;Laerm;35474;51.032;6.998;2023-05-14T05:13:48;58.06;45.60;73.82;;
49568;Laerm;35474;51.032;6.998;2023-05-14T05:16:14;56.18;45.11;69.35;;
49568;Laerm;35474;51.032;6.998;2023-05-14T05:18:41;58.75;44.90;71.10;;
49568;Laerm;35474;51.032;6.998;2023-05-14T05:21:10;55.52;44.15;68.91;;
49568;Laerm;35474;51.032;6.998;2023-05-14T05:23:36;54.76;44.65;67.20;;
49568;Laerm;35474;51.032;6.998;2023-05-14T05:26:03;57.72;43.63;67.86;;
49568;Laerm;35474;51.032;6.998;2023-05-14T05:28:29;55.38;43.24;66.45;;
49568;Laerm;35474;51.032;6.998;2023-05-14T05:30:58;59.64;44.15;71.48;;
49568;Laerm;35474;51.032;6.998;2023-05-14T05:33:25;58.68;43.77;70.80;;
49568;Laerm;35474;51.032;6.998;2023-05-14T05:35:52;50.57;44.11;63.44;;
49568;Laerm;35474;51.032;6.998;2023-05-14T05:38:18;58.67;43.90;71.05;;
49568;Laerm;35474;51.032;6.998;2023-05-14T05:40:45;60.53;43.44;71.90;;
49568;Laerm;35474;51.032;6.998;2023-05-14T05:43:12;53.18;41.46;67.29;;
49568;Laerm;35474;51.032;6.998;2023-05-14T05:45:39;58.03;42.35;71.18;;
49568;Laerm;35474;51.032;6.998;2023-05-14T05:48:06;56.55;41.68;74.05;;
49568;Laerm;35474;51.032;6.998;2023-05-14T05:50:33;51.51;41.89;64.52;;
49568;Laerm;35474;51.032;6.998;2023-05-14T05:53:00;56.58;42.29;70.47;;
49568;Laerm;35474;51.032;6.998;2023-05-14T05:55:27;57.88;42.09;76.50;;
49568;Laerm;35474;51.032;6.998;2023-05-14T05:57:54;60.84;41.53;85.82;;
49568;Laerm;35474;51.032;6.998;2023-05-14T06:00:21;58.74;42.16;74.21;;
49568;Laerm;35474;51.032;6.998;2023-05-14T06:02:49;59.12;42.53;68.79;;
49568;Laerm;35474;51.032;6.998;2023-05-14T06:05:18;54.84;42.03;66.89;;
49568;Laerm;35474;51.032;6.998;2023-05-14T06:07:45;60.69;43.04;72.30;;
49568;Laerm;35474;51.032;6.998;2023-05-14T06:10:12;57.35;42.41;67.84;;
49568;Laerm;35474;51.032;6.998;2023-05-14T06:12:38;54.85;41.75;70.53;;
49568;Laerm;35474;51.032;6.998;2023-05-14T06:15:08;58.17;42.03;70.88;;
49568;Laerm;35474;51.032;6.998;2023-05-14T06:17:34;56.56;41.89;68.98;;
49568;Laerm;35474;51.032;6.998;2023-05-14T06:20:01;61.10;43.04;75.39;;
49568;Laerm;35474;51.032;6.998;2023-05-14T06:22:28;58.71;42.16;68.59;;
49568;Laerm;35474;51.032;6.998;2023-05-14T06:24:54;56.36;41.53;68.08;;
49568;Laerm;35474;51.032;6.998;2023-05-14T06:27:21;56.55;42.09;70.80;;
49568;Laerm;35474;51.032;6.998;2023-05-14T06:32:35;59.56;42.93;69.22;;
49568;Laerm;35474;51.032;6.998;2023-05-14T06:35:01;58.78;40.71;75.70;;
49568;Laerm;35474;51.032;6.998;2023-05-14T06:37:28;60.82;42.59;74.47;;
49568;Laerm;35474;51.032;6.998;2023-05-14T06:39:55;58.77;42.16;68.96;;
49568;Laerm;35474;51.032;6.998;2023-05-14T06:42:23;61.42;43.39;74.11;;
49568;Laerm;35474;51.032;6.998;2023-05-14T06:44:49;60.51;41.46;79.43;;
49568;Laerm;35474;51.032;6.998;2023-05-14T06:47:16;58.12;42.65;70.14;;
49568;Laerm;35474;51.032;6.998;2023-05-14T06:49:43;60.83;43.34;73.02;;
49568;Laerm;35474;51.032;6.998;2023-05-14T06:52:09;62.82;46.77;71.73;;
49568;Laerm;35474;51.032;6.998;2023-05-14T06:54:36;61.13;43.24;71.02;;
49568;Laerm;35474;51.032;6.998;2023-05-14T06:57:03;59.04;40.80;68.80;;
49568;Laerm;35474;51.032;6.998;2023-05-14T06:59:29;59.45;42.35;71.12;;
49568;Laerm;35474;51.032;6.998;2023-05-14T07:01:56;61.08;39.92;70.39;;
49568;Laerm;35474;51.032;6.998;2023-05-14T07:04:23;59.91;41.30;71.16;;
49568;Laerm;35474;51.032;6.998;2023-05-14T07:06:49;61.54;45.04;69.88;;
49568;Laerm;35474;51.032;6.998;2023-05-14T07:09:16;60.91;45.20;72.28;;
49568;Laerm;35474;51.032;6.998;2023-05-14T07:11:43;57.87;42.71;71.99;;
49568;Laerm;35474;51.032;6.998;2023-05-14T07:14:09;58.73;42.65;69.58;;
49568;Laerm;35474;51.032;6.998;2023-05-14T07:16:36;60.10;41.88;72.35;;
49568;Laerm;35474;51.032;6.998;2023-05-14T07:19:03;59.55;40.71;70.86;;
49568;Laerm;35474;51.032;6.998;2023-05-14T07:21:29;62.75;42.29;72.21;;
49568;Laerm;35474;51.032;6.998;2023-05-14T07:23:57;60.18;39.92;70.29;;
49568;Laerm;35474;51.032;6.998;2023-05-14T07:26:23;60.37;40.23;74.70;;
49568;Laerm;35474;51.032;6.998;2023-05-14T07:28:50;60.40;42.22;70.53;;
49568;Laerm;35474;51.032;6.998;2023-05-14T07:31:16;60.04;43.34;73.42;;
49568;Laerm;35474;51.032;6.998;2023-05-14T07:33:43;61.12;41.30;70.28;;
49568;Laerm;35474;51.032;6.998;2023-05-14T07:36:10;61.10;40.03;69.39;;
49568;Laerm;35474;51.032;6.998;2023-05-14T07:38:37;63.35;45.60;71.79;;
49568;Laerm;35474;51.032;6.998;2023-05-14T07:41:03;58.76;39.92;67.73;;
49568;Laerm;35474;51.032;6.998;2023-05-14T07:43:30;62.64;42.76;70.38;;
49568;Laerm;35474;51.032;6.998;2023-05-14T07:45:56;63.35;44.11;72.39;;
49568;Laerm;35474;51.032;6.998;2023-05-14T07:48:23;61.31;43.99;69.87;;
49568;Laerm;35474;51.032;6.998;2023-05-14T07:50:50;59.41;41.96;71.02;;
49568;Laerm;35474;51.032;6.998;2023-05-14T07:53:17;61.34;41.75;69.03;;
49568;Laerm;35474;51.032;6.998;2023-05-14T07:55:44;62.32;41.75;72.07;;
49568;Laerm;35474;51.032;6.998;2023-05-14T07:58:10;61.84;45.01;69.77;;
49568;Laerm;35474;51.032;6.998;2023-05-14T08:00:43;59.62;40.96;70.63;;
49568;Laerm;35474;51.032;6.998;2023-05-14T08:03:09;63.02;45.11;71.03;;
49568;Laerm;35474;51.032;6.998;2023-05-14T08:05:36;62.60;41.89;71.42;;
49568;Laerm;35474;51.032;6.998;2023-05-14T08:08:03;62.97;45.17;72.21;;
49568;Laerm;35474;51.032;6.998;2023-05-14T08:10:30;61.55;45.72;70.71;;
49568;Laerm;35474;51.032;6.998;2023-05-14T08:12:56;61.97;47.28;72.06;;
49568;Laerm;35474;51.032;6.998;2023-05-14T08:15:23;60.89;44.80;69.82;;
49568;Laerm;35474;51.032;6.998;2023-05-14T08:17:53;63.54;42.53;74.40;;
49568;Laerm;35474;51.032;6.998;2023-05-14T08:20:19;60.85;44.73;72.42;;
49568;Laerm;35474;51.032;6.998;2023-05-14T08:22:46;63.35;45.75;73.03;;
49568;Laerm;35474;51.032;6.998;2023-05-14T08:25:12;63.67;44.54;71.31;;
49568;Laerm;35474;51.032;6.998;2023-05-14T08:27:39;62.97;47.93;70.93;;
49568;Laerm;35474;51.032;6.998;2023-05-14T08:30:06;61.20;42.09;70.18;;
49568;Laerm;35474;51.032;6.998;2023-05-14T08:32:32;61.07;42.16;70.39;;
49568;Laerm;35474;51.032;6.998;2023-05-14T08:34:59;63.88;43.81;79.57;;
49568;Laerm;35474;51.032;6.998;2023-05-14T08:37:26;62.11;43.14;73.91;;
49568;Laerm;35474;51.032;6.998;2023-05-14T08:39:52;61.94;47.55;70.93;;
49568;Laerm;35474;51.032;6.998;2023-05-14T08:42:19;63.40;48.57;70.76;;
49568;Laerm;35474;51.032;6.998;2023-05-14T08:44:48;66.55;43.24;79.55;;
49568;Laerm;35474;51.032;6.998;2023-05-14T08:47:20;62.17;44.73;69.29;;
49568;Laerm;35474;51.032;6.998;2023-05-14T08:49:53;62.52;45.86;72.11;;
49568;Laerm;35474;51.032;6.998;2023-05-14T08:52:23;60.08;41.82;71.44;;
49568;Laerm;35474;51.032;6.998;2023-05-14T08:54:50;60.68;41.89;70.31;;
49568;Laerm;35474;51.032;6.998;2023-05-14T08:57:19;61.87;47.88;73.30;;
49568;Laerm;35474;51.032;6.998;2023-05-14T08:59:55;58.96;43.14;69.00;;
49568;Laerm;35474;51.032;6.998;2023-05-14T09:02:24;63.69;52.10;70.44;;
49568;Laerm;35474;51.032;6.998;2023-05-14T09:04:57;65.57;52.21;75.15;;
49568;Laerm;35474;51.032;6.998;2023-05-14T09:07:24;62.65;44.76;74.72;;
49568;Laerm;35474;51.032;6.998;2023-05-14T09:09:51;63.01;48.21;77.60;;
49568;Laerm;35474;51.032;6.998;2023-05-14T09:12:18;62.62;43.44;71.19;;
49568;Laerm;35474;51.032;6.998;2023-05-14T09:14:46;63.00;50.03;72.12;;
49568;Laerm;35474;51.032;6.998;2023-05-14T09:17:13;63.12;43.58;71.93;;
49568;Laerm;35474;51.032;6.998;2023-05-14T09:19:41;63.75;44.51;86.47;;
49568;Laerm;35474;51.032;6.998;2023-05-14T09:22:14;62.03;43.44;70.27;;
49568;Laerm;35474;51.032;6.998;2023-05-14T09:24:41;62.77;41.53;70.09;;
49568;Laerm;35474;51.032;6.998;2023-05-14T09:27:17;63.42;46.28;72.31;;
49568;Laerm;35474;51.032;6.998;2023-05-14T09:29:45;63.33;45.33;73.77;;
49568;Laerm;35474;51.032;6.998;2023-05-14T09:32:12;63.15;50.23;71.16;;
49568;Laerm;35474;51.032;6.998;2023-05-14T09:34:39;61.07;44.80;70.88;;
49568;Laerm;35474;51.032;6.998;2023-05-14T09:37:07;64.62;50.48;80.38;;
49568;Laerm;35474;51.032;6.998;2023-05-14T09:39:35;63.22;45.54;70.31;;
49568;Laerm;35474;51.032;6.998;2023-05-14T09:42:02;64.01;48.70;77.75;;
49568;Laerm;35474;51.032;6.998;2023-05-14T09:44:29;67.17;47.34;85.77;;
49568;Laerm;35474;51.032;6.998;2023-05-14T09:46:57;64.33;45.36;82.36;;
49568;Laerm;35474;51.032;6.998;2023-05-14T09:49:24;63.28;42.59;73.33;;
49568;Laerm;35474;51.032;6.998;2023-05-14T09:51:50;63.79;52.54;76.43;;
49568;Laerm;35474;51.032;6.998;2023-05-14T09:54:17;63.09;42.65;71.09;;
49568;Laerm;35474;51.032;6.998;2023-05-14T09:56:44;63.82;41.22;83.20;;
49568;Laerm;35474;51.032;6.998;2023-05-14T09:59:10;65.74;45.51;86.93;;
49568;Laerm;35474;51.032;6.998;2023-05-14T10:01:37;62.12;45.42;70.83;;
49568;Laerm;35474;51.032;6.998;2023-05-14T10:04:06;63.08;49.34;72.46;;
49568;Laerm;35474;51.032;6.998;2023-05-14T10:06:36;63.94;45.30;74.39;;
49568;Laerm;35474;51.032;6.998;2023-05-14T10:09:04;66.36;50.02;80.69;;
49568;Laerm;35474;51.032;6.998;2023-05-14T10:11:37;62.72;44.87;73.15;;
49568;Laerm;35474;51.032;6.998;2023-05-14T10:14:13;63.56;48.15;73.45;;
49568;Laerm;35474;51.032;6.998;2023-05-14T10:16:48;64.16;44.69;79.63;;
49568;Laerm;35474;51.032;6.998;2023-05-14T10:19:17;65.14;52.85;82.09;;
49568;Laerm;35474;51.032;6.998;2023-05-14T10:21:47;61.83;45.80;69.12;;
49568;Laerm;35474;51.032;6.998;2023-05-14T10:24:15;64.75;46.18;83.39;;
49568;Laerm;35474;51.032;6.998;2023-05-14T10:26:43;65.37;44.73;83.10;;
49568;Laerm;35474;51.032;6.998;2023-05-14T10:29:11;70.60;51.22;93.43;;
49568;Laerm;35474;51.032;6.998;2023-05-14T10:31:51;67.14;42.71;90.14;;
49568;Laerm;35474;51.032;6.998;2023-05-14T10:36:59;66.59;44.35;88.35;;
49568;Laerm;35474;51.032;6.998;2023-05-14T10:42:07;64.85;43.94;79.45;;
49568;Laerm;35474;51.032;6.998;2023-05-14T10:44:41;64.01;44.03;80.29;;
49568;Laerm;35474;51.032;6.998;2023-05-14T10:47:11;67.52;49.12;85.31;;
49568;Laerm;35474;51.032;6.998;2023-05-14T10:49:38;63.87;50.77;73.34;;
49568;Laerm;35474;51.032;6.998;2023-05-14T10:52:10;63.92;45.14;77.32;;
49568;Laerm;35474;51.032;6.998;2023-05-14T10:54:37;63.42;42.98;74.81;;
49568;Laerm;35474;51.032;6.998;2023-05-14T10:57:10;63.05;43.44;71.69;;
49568;Laerm;35474;51.032;6.998;2023-05-14T10:59:40;64.84;50.33;85.14;;
49568;Laerm;35474;51.032;6.998;2023-05-14T11:02:18;62.62;44.54;72.72;;
49568;Laerm;35474;51.032;6.998;2023-05-14T11:04:54;64.59;43.77;85.53;;
49568;Laerm;35474;51.032;6.998;2023-05-14T11:07:24;62.84;47.16;71.31;;
49568;Laerm;35474;51.032;6.998;2023-05-14T11:09:52;64.50;52.03;75.15;;
49568;Laerm;35474;51.032;6.998;2023-05-14T11:12:20;64.14;46.28;79.97;;
49568;Laerm;35474;51.032;6.998;2023-05-14T11:14:47;63.33;44.31;73.47;;
49568;Laerm;35474;51.032;6.998;2023-05-14T11:17:14;62.95;43.63;72.36;;
49568;Laerm;35474;51.032;6.998;2023-05-14T11:19:42;61.35;43.44;71.27;;
49568;Laerm;35474;51.032;6.998;2023-05-14T11:22:10;60.47;42.65;74.20;;
49568;Laerm;35474;51.032;6.998;2023-05-14T11:24:40;66.04;46.30;80.48;;
49568;Laerm;35474;51.032;6.998;2023-05-14T11:27:07;63.15;44.87;71.14;;
49568;Laerm;35474;51.032;6.998;2023-05-14T11:29:37;63.58;45.27;73.18;;
49568;Laerm;35474;51.032;6.998;2023-05-14T11:32:05;64.46;43.49;76.96;;
49568;Laerm;35474;51.032;6.998;2023-05-14T11:34:32;65.84;41.68;86.22;;
49568;Laerm;35474;51.032;6.998;2023-05-14T11:37:06;76.32;44.58;99.44;;
49568;Laerm;35474;51.032;6.998;2023-05-14T11:39:33;64.05;42.16;75.63;;
49568;Laerm;35474;51.032;6.998;2023-05-14T11:42:04;64.72;45.11;75.75;;
49568;Laerm;35474;51.032;6.998;2023-05-14T11:44:31;62.94;44.35;72.76;;
49568;Laerm;35474;51.032;6.998;2023-05-14T11:46:58;64.60;40.89;80.59;;
49568;Laerm;35474;51.032;6.998;2023-05-14T11:49:27;63.13;51.73;71.27;;
49568;Laerm;35474;51.032;6.998;2023-05-14T11:51:58;62.65;44.31;73.66;;
49568;Laerm;35474;51.032;6.998;2023-05-14T11:54:26;62.73;45.60;75.60;;
49568;Laerm;35474;51.032;6.998;2023-05-14T11:56:54;62.97;46.64;69.99;;
49568;Laerm;35474;51.032;6.998;2023-05-14T11:59:29;63.36;43.68;73.26;;
49568;Laerm;35474;51.032;6.998;2023-05-14T12:01:57;63.54;45.94;70.86;;
49568;Laerm;35474;51.032;6.998;2023-05-14T12:04:24;63.05;49.08;75.99;;
49568;Laerm;35474;51.032;6.998;2023-05-14T12:06:52;61.21;44.51;70.67;;
49568;Laerm;35474;51.032;6.998;2023-05-14T12:09:20;76.44;43.99;97.95;;
49568;Laerm;35474;51.032;6.998;2023-05-14T12:11:49;71.11;42.35;91.54;;
49568;Laerm;35474;51.032;6.998;2023-05-14T12:14:20;62.51;43.19;76.01;;
49568;Laerm;35474;51.032;6.998;2023-05-14T12:16:48;62.74;44.47;74.88;;
49568;Laerm;35474;51.032;6.998;2023-05-14T12:19:17;63.52;45.14;80.32;;
49568;Laerm;35474;51.032;6.998;2023-05-14T12:21:46;64.75;43.19;76.87;;
49568;Laerm;35474;51.032;6.998;2023-05-14T12:24:16;62.42;45.01;72.16;;
49568;Laerm;35474;51.032;6.998;2023-05-14T12:26:47;64.97;44.47;92.51;;
49568;Laerm;35474;51.032;6.998;2023-05-14T12:29:15;64.57;43.90;82.61;;
49568;Laerm;35474;51.032;6.998;2023-05-14T12:31:46;64.94;45.33;72.81;;
49568;Laerm;35474;51.032;6.998;2023-05-14T12:34:14;71.81;52.36;91.86;;
49568;Laerm;35474;51.032;6.998;2023-05-14T12:36:45;62.01;42.98;70.95;;
49568;Laerm;35474;51.032;6.998;2023-05-14T12:39:12;64.42;40.53;92.05;;
49568;Laerm;35474;51.032;6.998;2023-05-14T12:41:38;70.95;43.58;95.52;;
49568;Laerm;35474;51.032;6.998;2023-05-14T12:44:05;70.03;47.06;93.82;;
49568;Laerm;35474;51.032;6.998;2023-05-14T12:46:32;63.65;45.77;80.04;;
49568;Laerm;35474;51.032;6.998;2023-05-14T12:48:59;64.72;45.07;84.82;;
49568;Laerm;35474;51.032;6.998;2023-05-14T12:51:26;69.32;41.96;87.88;;
49568;Laerm;35474;51.032;6.998;2023-05-14T12:53:53;61.48;48.58;68.62;;
49568;Laerm;35474;51.032;6.998;2023-05-14T12:56:19;63.02;43.68;72.24;;
49568;Laerm;35474;51.032;6.998;2023-05-14T12:58:46;62.45;45.36;73.73;;
49568;Laerm;35474;51.032;6.998;2023-05-14T13:01:13;63.12;43.94;71.76;;
49568;Laerm;35474;51.032;6.998;2023-05-14T13:03:40;64.00;51.77;72.10;;
49568;Laerm;35474;51.032;6.998;2023-05-14T13:06:07;63.74;49.07;81.81;;
49568;Laerm;35474;51.032;6.998;2023-05-14T13:08:34;65.77;46.62;76.17;;
49568;Laerm;35474;51.032;6.998;2023-05-14T13:11:00;61.55;44.43;73.78;;
49568;Laerm;35474;51.032;6.998;2023-05-14T13:13:27;62.07;45.17;70.18;;
49568;Laerm;35474;51.032;6.998;2023-05-14T13:15:54;66.58;51.37;96.53;;
49568;Laerm;35474;51.032;6.998;2023-05-14T13:18:21;62.60;46.33;69.02;;
49568;Laerm;35474;51.032;6.998;2023-05-14T13:20:47;63.00;44.39;77.12;;
49568;Laerm;35474;51.032;6.998;2023-05-14T13:23:14;64.02;41.89;74.44;;
49568;Laerm;35474;51.032;6.998;2023-05-14T13:25:40;69.01;40.62;90.45;;
49568;Laerm;35474;51.032;6.998;2023-05-14T13:28:07;63.19;42.65;70.78;;
49568;Laerm;35474;51.032;6.998;2023-05-14T13:30:34;63.22;48.08;70.44;;
49568;Laerm;35474;51.032;6.998;2023-05-14T13:33:01;64.87;47.95;83.35;;
49568;Laerm;35474;51.032;6.998;2023-05-14T13:35:27;62.27;43.60;70.25;;
49568;Laerm;35474;51.032;6.998;2023-05-14T13:37:54;63.47;51.98;79.21;;
49568;Laerm;35474;51.032;6.998;2023-05-14T13:40:21;63.13;47.30;72.30;;
49568;Laerm;35474;51.032;6.998;2023-05-14T13:42:47;62.98;45.75;72.12;;
49568;Laerm;35474;51.032;6.998;2023-05-14T13:45:14;65.64;43.09;81.77;;
49568;Laerm;35474;51.032;6.998;2023-05-14T13:47:41;66.36;48.74;84.90;;
49568;Laerm;35474;51.032;6.998;2023-05-14T13:50:07;65.28;50.75;81.40;;
49568;Laerm;35474;51.032;6.998;2023-05-14T13:52:34;61.35;40.89;74.12;;
49568;Laerm;35474;51.032;6.998;2023-05-14T13:55:01;62.41;43.14;70.40;;
49568;Laerm;35474;51.032;6.998;2023-05-14T13:57:27;63.00;45.45;72.59;;
49568;Laerm;35474;51.032;6.998;2023-05-14T13:59:54;62.64;45.97;71.59;;